createdAt,value
2022-12-27T00:02:07.090Z,7.60
2022-12-27T00:04:29.858Z,7.53
2022-12-27T00:06:52.533Z,7.56
2022-12-27T00:09:15.143Z,7.63
2022-12-27T00:11:39.062Z,7.53
2022-12-27T00:14:03.270Z,7.40
2022-12-27T00:16:26.141Z,7.32
2022-12-27T00:18:49.698Z,7.25
2022-12-27T00:21:14.077Z,7.32
2022-12-27T00:23:43.420Z,7.29
2022-12-27T00:26:11.642Z,7.22
2022-12-27T00:28:35.781Z,7.25
2022-12-27T00:31:00.446Z,7.25
2022-12-27T00:33:24.154Z,7.12
2022-12-27T00:35:46.939Z,7.20
2022-12-27T00:38:09.629Z,7.15
2022-12-27T00:40:32.294Z,7.19
2022-12-27T00:42:54.923Z,7.20
2022-12-27T00:45:17.442Z,7.26
2022-12-27T00:47:40.395Z,7.35
2022-12-27T00:50:03.144Z,7.37
2022-12-27T00:52:25.777Z,7.37
2022-12-27T00:54:48.407Z,7.29
2022-12-27T00:57:11.003Z,7.45
2022-12-27T00:59:33.625Z,7.45
2022-12-27T01:01:56.255Z,7.37
2022-12-27T01:04:19.257Z,7.42
2022-12-27T01:06:41.866Z,7.20
2022-12-27T01:09:06.033Z,7.07
2022-12-27T01:11:29.111Z,7.16
2022-12-27T01:13:51.742Z,7.30
2022-12-27T01:16:16.508Z,7.18
2022-12-27T01:18:40.275Z,7.08
2022-12-27T01:21:11.195Z,7.08
2022-12-27T01:23:34.140Z,6.88
2022-12-27T01:26:04.770Z,7.12
2022-12-27T01:28:27.441Z,7.23
2022-12-27T01:30:49.989Z,7.35
2022-12-27T01:33:12.672Z,7.26
2022-12-27T01:35:35.269Z,7.18
2022-12-27T01:37:58.656Z,7.02
2022-12-27T01:40:21.215Z,7.11
2022-12-27T01:42:53.022Z,7.12
2022-12-27T01:45:20.360Z,7.25
2022-12-27T01:47:49.593Z,7.42
2022-12-27T01:50:14.968Z,7.49
2022-12-27T01:53:00.383Z,7.63
2022-12-27T01:55:27.249Z,7.73
2022-12-27T01:57:53.190Z,7.83
2022-12-27T02:00:17.406Z,7.91
2022-12-27T02:02:40.835Z,7.95
2022-12-27T02:05:04.251Z,7.95
2022-12-27T02:07:38.711Z,7.97
2022-12-27T02:10:03.370Z,8.02
2022-12-27T02:12:26.478Z,8.08
2022-12-27T02:14:50.144Z,8.15
2022-12-27T02:17:15.577Z,8.16
2022-12-27T02:19:41.239Z,8.15
2022-12-27T02:22:15.958Z,8.25
2022-12-27T02:24:54.193Z,8.35
2022-12-27T02:27:39.174Z,8.31
2022-12-27T02:30:07.096Z,8.14
2022-12-27T02:32:52.560Z,8.08
2022-12-27T02:35:58.448Z,8.08
2022-12-27T02:38:31.118Z,8.01
2022-12-27T02:41:14.785Z,8.21
2022-12-27T02:43:56.125Z,8.18
2022-12-27T02:46:42.813Z,8.11
2022-12-27T02:49:48.620Z,8.11
2022-12-27T02:53:02.379Z,8.22
2022-12-27T02:56:07.751Z,8.33
2022-12-27T02:59:09.890Z,8.36
2022-12-27T03:01:58.421Z,8.36
2022-12-27T03:04:31.287Z,8.26
2022-12-27T03:07:13.625Z,8.24
2022-12-27T03:10:20.811Z,8.24
2022-12-27T03:13:27.691Z,8.41
2022-12-27T03:15:59.261Z,8.38
2022-12-27T03:18:28.034Z,8.41
2022-12-27T03:21:09.997Z,8.39
2022-12-27T03:23:52.389Z,8.46
2022-12-27T03:26:17.387Z,8.38
2022-12-27T03:29:00.868Z,8.36
2022-12-27T03:31:47.916Z,8.29
2022-12-27T03:34:33.388Z,8.31
2022-12-27T03:37:19.123Z,8.12
2022-12-27T03:40:05.361Z,7.91
2022-12-27T03:42:49.544Z,7.77
2022-12-27T03:45:12.341Z,7.63
2022-12-27T03:47:46.532Z,7.56
2022-12-27T03:50:21.251Z,7.46
2022-12-27T03:52:49.374Z,7.35
2022-12-27T03:55:12.386Z,7.25
2022-12-27T03:57:35.442Z,7.20
2022-12-27T03:59:58.492Z,7.15
2022-12-27T04:02:21.380Z,7.08
2022-12-27T04:04:45.450Z,7.07
2022-12-27T04:07:08.384Z,7.09
2022-12-27T04:09:49.840Z,7.05
2022-12-27T04:12:30.930Z,7.01
2022-12-27T04:15:12.543Z,6.97
2022-12-27T04:17:54.145Z,7.01
2022-12-27T04:20:35.560Z,6.87
2022-12-27T04:23:17.090Z,6.78
2022-12-27T04:25:58.159Z,6.73
2022-12-27T04:28:40.014Z,6.63
2022-12-27T04:31:21.258Z,6.63
2022-12-27T04:34:02.187Z,6.57
2022-12-27T04:36:24.747Z,6.54
2022-12-27T04:38:47.332Z,6.56
2022-12-27T04:41:28.721Z,6.61
2022-12-27T04:44:26.714Z,6.60
2022-12-27T04:47:21.322Z,6.60
2022-12-27T04:50:02.568Z,6.66
2022-12-27T04:52:44.108Z,6.57
2022-12-27T04:55:26.778Z,6.54
2022-12-27T04:57:50.583Z,6.53
2022-12-27T05:00:33.250Z,6.43
2022-12-27T05:02:56.834Z,6.40
2022-12-27T05:05:19.722Z,6.42
2022-12-27T05:08:01.077Z,6.30
2022-12-27T05:10:42.727Z,6.22
2022-12-27T05:13:23.912Z,6.13
2022-12-27T05:15:46.613Z,6.21
2022-12-27T05:18:09.376Z,6.30
2022-12-27T05:20:35.240Z,6.37
2022-12-27T05:23:16.422Z,6.42
2022-12-27T05:25:43.066Z,6.44
2022-12-27T05:28:08.524Z,6.43
2022-12-27T05:30:35.329Z,6.39
2022-12-27T05:32:57.960Z,6.23
2022-12-27T05:35:20.663Z,6.06
2022-12-27T05:37:43.461Z,6.02
2022-12-27T05:40:06.896Z,5.97
2022-12-27T05:42:29.469Z,5.97
2022-12-27T05:44:52.097Z,5.94
2022-12-27T05:47:14.579Z,5.91
2022-12-27T05:49:37.326Z,5.90
2022-12-27T05:51:59.986Z,5.87
2022-12-27T05:54:22.718Z,5.87
2022-12-27T05:56:45.212Z,5.88
2022-12-27T05:59:08.224Z,5.84
2022-12-27T06:01:30.855Z,5.85
2022-12-27T06:03:53.587Z,5.90
2022-12-27T06:06:16.222Z,6.02
2022-12-27T06:08:39.843Z,6.18
2022-12-27T06:11:12.026Z,6.30
2022-12-27T06:13:35.713Z,6.36
2022-12-27T06:16:00.293Z,6.39
2022-12-27T06:18:22.971Z,6.36
2022-12-27T06:20:45.605Z,6.21
2022-12-27T06:23:08.948Z,6.29
2022-12-27T06:25:31.571Z,6.49
2022-12-27T06:27:54.177Z,6.83
2022-12-27T06:30:16.969Z,6.94
2022-12-27T06:32:39.654Z,7.11
2022-12-27T06:35:02.798Z,7.25
2022-12-27T06:37:25.362Z,7.40
2022-12-27T06:39:48.084Z,7.49
2022-12-27T06:42:10.836Z,7.64
2022-12-27T06:44:33.426Z,7.76
2022-12-27T06:46:56.433Z,7.97
2022-12-27T06:49:19.214Z,8.16
2022-12-27T06:51:42.013Z,8.21
2022-12-27T06:54:04.585Z,8.24
2022-12-27T06:56:27.317Z,8.35
2022-12-27T06:58:51.115Z,8.38
2022-12-27T07:01:20.020Z,8.35
2022-12-27T07:03:43.759Z,8.39
2022-12-27T07:06:08.799Z,8.35
2022-12-27T07:08:31.683Z,8.32
2022-12-27T07:11:03.957Z,8.26
2022-12-27T07:13:26.577Z,8.22
2022-12-27T07:15:49.219Z,8.16
2022-12-27T07:18:11.991Z,8.06
2022-12-27T07:20:34.738Z,8.05
2022-12-27T07:22:58.966Z,7.98
2022-12-27T07:25:21.527Z,7.98
2022-12-27T07:27:44.523Z,8.20
2022-12-27T07:30:07.982Z,8.36
2022-12-27T07:32:31.382Z,8.57
2022-12-27T07:34:53.963Z,8.67
2022-12-27T07:37:17.792Z,8.77
2022-12-27T07:39:40.585Z,8.73
2022-12-27T07:42:07.953Z,8.66
2022-12-27T07:44:33.158Z,8.63
2022-12-27T07:46:55.771Z,8.69
2022-12-27T07:49:18.821Z,8.69
2022-12-27T07:51:41.497Z,8.76
2022-12-27T07:54:04.327Z,8.76
2022-12-27T07:56:29.006Z,8.74
2022-12-27T07:58:52.112Z,8.73
2022-12-27T08:01:19.243Z,8.79
2022-12-27T08:03:42.850Z,8.79
2022-12-27T08:06:06.388Z,8.80
2022-12-27T08:08:37.788Z,8.80
2022-12-27T08:11:05.265Z,8.96
2022-12-27T08:13:28.364Z,8.88
2022-12-27T08:15:52.835Z,8.88
2022-12-27T08:18:15.444Z,8.79
2022-12-27T08:20:38.109Z,8.94
2022-12-27T08:23:00.813Z,8.94
2022-12-27T08:25:23.645Z,8.96
2022-12-27T08:27:46.366Z,9.00
2022-12-27T08:30:09.822Z,9.03
2022-12-27T08:32:32.488Z,9.07
2022-12-27T08:35:06.867Z,9.01
2022-12-27T08:37:38.824Z,9.18
2022-12-27T08:40:03.021Z,9.24
2022-12-27T08:42:26.253Z,9.19
2022-12-27T08:44:48.889Z,9.15
2022-12-27T08:47:11.414Z,9.14
2022-12-27T08:49:34.457Z,9.21
2022-12-27T08:51:57.226Z,9.21
2022-12-27T08:54:21.717Z,9.15
2022-12-27T08:56:44.877Z,9.21
2022-12-27T08:59:07.507Z,9.21
2022-12-27T09:01:32.767Z,9.28
2022-12-27T09:03:55.610Z,9.21
2022-12-27T09:06:21.785Z,9.11
2022-12-27T09:08:46.109Z,9.14
2022-12-27T09:11:13.255Z,9.11
2022-12-27T09:13:36.365Z,9.18
2022-12-27T09:15:59.360Z,9.05
2022-12-27T09:18:22.216Z,9.05
2022-12-27T09:20:44.859Z,9.12
2022-12-27T09:23:07.558Z,9.18
2022-12-27T09:25:30.245Z,9.17
2022-12-27T09:27:52.921Z,9.10
2022-12-27T09:30:15.762Z,9.10
2022-12-27T09:32:38.353Z,9.07
2022-12-27T09:35:01.122Z,9.10
2022-12-27T09:37:23.918Z,9.08
2022-12-27T09:39:46.898Z,9.03
2022-12-27T09:45:23.355Z,9.01
2022-12-27T09:48:09.024Z,8.97
2022-12-27T09:50:35.554Z,8.97
2022-12-27T09:53:42.829Z,8.96
2022-12-27T09:56:06.532Z,8.96
2022-12-27T09:58:44.725Z,8.92
2022-12-27T10:01:33.774Z,8.97
2022-12-27T10:03:56.595Z,8.98
2022-12-27T10:06:48.896Z,8.90
2022-12-27T10:09:11.752Z,8.80
2022-12-27T10:11:49.760Z,8.74
2022-12-27T10:14:23.528Z,8.71
2022-12-27T10:17:04.315Z,8.71
2022-12-27T10:19:40.047Z,8.63
2022-12-27T10:22:07.519Z,8.66
2022-12-27T10:24:53.302Z,8.52
2022-12-27T10:27:25.331Z,8.41
2022-12-27T10:29:52.968Z,8.41
2022-12-27T10:32:16.760Z,8.36
2022-12-27T10:34:39.325Z,8.26
2022-12-27T10:37:03.290Z,8.36
2022-12-27T10:39:30.399Z,8.42
2022-12-27T10:42:17.942Z,8.41
2022-12-27T10:44:40.681Z,8.42
2022-12-27T10:47:03.495Z,8.42
2022-12-27T10:49:31.623Z,8.52
2022-12-27T10:51:59.242Z,8.48
2022-12-27T10:54:31.161Z,8.48
2022-12-27T10:56:54.846Z,8.46
2022-12-27T10:59:27.222Z,8.46
2022-12-27T11:02:15.218Z,8.42
2022-12-27T11:04:59.173Z,8.50
2022-12-27T11:07:21.832Z,8.50
2022-12-27T11:09:50.619Z,8.54
2022-12-27T11:12:23.768Z,8.52
2022-12-27T11:14:59.978Z,8.49
2022-12-27T11:17:40.382Z,8.43
2022-12-27T11:20:19.558Z,8.33
2022-12-27T11:22:49.731Z,8.32
2022-12-27T11:25:14.161Z,8.33
2022-12-27T11:27:37.465Z,8.36
2022-12-27T11:30:00.747Z,8.33
2022-12-27T11:32:24.204Z,8.39
2022-12-27T11:34:49.079Z,8.29
2022-12-27T11:37:16.219Z,8.26
2022-12-27T11:39:41.551Z,8.31
2022-12-27T11:42:08.255Z,8.24
2022-12-27T11:44:36.477Z,8.28
2022-12-27T11:47:37.442Z,8.33
2022-12-27T11:50:05.924Z,8.31
2022-12-27T11:52:53.208Z,8.35
2022-12-27T11:55:53.408Z,8.24
2022-12-27T11:58:44.640Z,8.25
2022-12-27T12:01:31.768Z,8.29
2022-12-27T12:04:18.434Z,8.22
2022-12-27T12:06:49.800Z,8.21
2022-12-27T12:09:27.731Z,8.15
2022-12-27T12:12:05.533Z,8.11
2022-12-27T12:14:55.002Z,8.09
2022-12-27T12:17:37.109Z,8.09
2022-12-27T12:20:18.268Z,8.08
2022-12-27T12:22:55.991Z,7.99
2022-12-27T12:25:30.258Z,7.95
2022-12-27T12:28:13.232Z,7.93
2022-12-27T12:30:53.495Z,7.87
2022-12-27T12:33:41.605Z,7.88
2022-12-27T12:36:10.051Z,7.95
2022-12-27T12:38:44.642Z,7.91
2022-12-27T12:41:34.951Z,7.91
2022-12-27T12:44:15.913Z,7.91
2022-12-27T12:46:41.797Z,7.80
2022-12-27T12:49:12.961Z,7.67
2022-12-27T12:51:50.218Z,7.62
2022-12-27T12:54:13.348Z,7.63
2022-12-27T12:56:56.827Z,7.55
2022-12-27T12:59:44.443Z,7.60
2022-12-27T13:02:19.224Z,7.57
2022-12-27T13:05:16.779Z,7.53
2022-12-27T13:08:00.521Z,7.47
2022-12-27T13:10:48.746Z,7.40
2022-12-27T13:13:52.658Z,7.22
2022-12-27T13:16:34.083Z,7.25
2022-12-27T13:19:21.463Z,7.25
2022-12-27T13:21:53.109Z,7.18
2022-12-27T13:24:54.190Z,7.12
2022-12-27T13:27:25.612Z,7.07
2022-12-27T13:30:15.532Z,7.07
2022-12-27T13:33:02.621Z,7.05
2022-12-27T13:35:33.321Z,6.95
2022-12-27T13:38:20.655Z,6.94
2022-12-27T13:41:10.932Z,6.85
2022-12-27T13:43:51.504Z,6.81
2022-12-27T13:46:42.905Z,6.70
2022-12-27T13:49:17.906Z,6.70
2022-12-27T13:51:56.548Z,6.61
2022-12-27T13:54:31.320Z,6.60
2022-12-27T13:57:14.115Z,6.53
2022-12-27T13:59:58.206Z,6.56
2022-12-27T14:02:32.619Z,6.56
2022-12-27T14:05:21.921Z,6.53
2022-12-27T14:08:03.083Z,6.43
2022-12-27T14:10:53.877Z,6.39
2022-12-27T14:13:41.385Z,6.34
2022-12-27T14:16:13.114Z,6.26
2022-12-27T14:19:18.277Z,6.22
2022-12-27T14:22:11.492Z,6.18
2022-12-27T14:24:34.100Z,6.04
2022-12-27T14:27:38.610Z,5.94
2022-12-27T14:30:39.761Z,5.83
2022-12-27T14:33:37.358Z,5.77
2022-12-27T14:36:05.991Z,5.64
2022-12-27T14:38:53.863Z,5.50
2022-12-27T14:41:50.209Z,5.48
2022-12-27T14:44:21.428Z,5.43
2022-12-27T14:46:52.857Z,5.33
2022-12-27T14:49:47.286Z,5.35
2022-12-27T14:52:31.924Z,5.35
2022-12-27T14:55:16.068Z,5.25
2022-12-27T14:58:12.133Z,5.08
2022-12-27T15:01:09.275Z,5.00
2022-12-27T15:03:54.485Z,4.95
2022-12-27T15:06:17.227Z,4.74
2022-12-27T15:09:07.209Z,4.74
2022-12-27T15:11:54.073Z,4.71
2022-12-27T15:14:35.311Z,4.65
2022-12-27T15:17:18.204Z,4.57
2022-12-27T15:19:59.617Z,4.49
2022-12-27T15:22:35.027Z,4.32
2022-12-27T15:25:15.645Z,4.20
2022-12-27T15:27:41.076Z,4.06
2022-12-27T15:30:22.061Z,3.98
2022-12-27T15:33:01.404Z,3.99
2022-12-27T15:36:05.874Z,4.09
2022-12-27T15:38:54.547Z,4.05
2022-12-27T15:41:31.473Z,4.14
2022-12-27T15:44:08.995Z,4.20
2022-12-27T15:47:01.052Z,4.20
2022-12-27T15:49:36.090Z,4.24
2022-12-27T15:52:03.490Z,4.32
2022-12-27T15:54:55.096Z,4.24
2022-12-27T15:57:20.565Z,4.22
2022-12-27T15:59:48.264Z,4.17
2022-12-27T16:02:17.129Z,4.16
2022-12-27T16:04:50.380Z,4.09
2022-12-27T16:07:35.822Z,4.17
2022-12-27T16:09:58.765Z,4.06
2022-12-27T16:12:39.743Z,4.02
2022-12-27T16:15:34.572Z,3.95
2022-12-27T16:17:57.131Z,3.89
2022-12-27T16:20:21.925Z,3.85
2022-12-27T16:23:02.749Z,3.71
2022-12-27T16:25:34.474Z,3.61
2022-12-27T16:28:15.766Z,3.60
2022-12-27T16:30:45.822Z,3.67
2022-12-27T16:33:37.742Z,3.55
2022-12-27T16:36:15.429Z,3.55
2022-12-27T16:38:55.380Z,3.67
2022-12-27T16:41:47.039Z,3.57
2022-12-27T16:44:37.870Z,3.53
2022-12-27T16:47:25.509Z,3.34
2022-12-27T16:50:14.290Z,3.30
2022-12-27T16:53:10.981Z,3.31
2022-12-27T16:55:47.696Z,3.40
2022-12-27T16:58:23.480Z,3.31
2022-12-27T17:00:51.128Z,3.24
2022-12-27T17:03:22.525Z,3.30
2022-12-27T17:06:21.754Z,3.36
2022-12-27T17:08:29.813Z,3.33
2022-12-27T17:10:52.281Z,3.38
2022-12-27T17:13:32.840Z,3.38
2022-12-27T17:16:07.851Z,3.48
2022-12-27T17:18:35.309Z,3.53
2022-12-27T17:21:03.764Z,3.44
2022-12-27T17:23:26.530Z,3.36
2022-12-27T17:25:57.979Z,3.33
2022-12-27T17:28:29.199Z,3.28
2022-12-27T17:31:05.272Z,3.34
2022-12-27T17:33:27.946Z,3.24
2022-12-27T17:35:56.194Z,3.16
2022-12-27T17:38:33.662Z,3.15
2022-12-27T17:41:16.079Z,3.30
2022-12-27T17:44:19.333Z,3.23
2022-12-27T17:46:44.587Z,3.17
2022-12-27T17:49:10.910Z,3.12
2022-12-27T17:51:35.526Z,3.07
2022-12-27T17:54:16.605Z,2.96
2022-12-27T17:57:18.655Z,2.86
2022-12-27T17:59:47.119Z,2.78
2022-12-27T18:02:26.914Z,2.74
2022-12-27T18:04:53.236Z,2.68
2022-12-27T18:07:23.986Z,2.64
2022-12-27T18:09:50.305Z,2.77
2022-12-27T18:12:25.931Z,2.61
2022-12-27T18:15:01.290Z,2.65
2022-12-27T18:17:32.653Z,2.64
2022-12-27T18:19:57.985Z,2.52
2022-12-27T18:22:21.124Z,2.47
2022-12-27T18:24:43.697Z,2.51
2022-12-27T18:27:15.987Z,2.40
2022-12-27T18:29:38.649Z,2.42
2022-12-27T18:32:05.477Z,2.38
2022-12-27T18:34:42.122Z,2.38
2022-12-27T18:37:15.907Z,2.38
2022-12-27T18:39:41.624Z,2.42
2022-12-27T18:42:30.588Z,2.34
2022-12-27T18:45:01.332Z,2.37
2022-12-27T18:47:30.096Z,2.37
2022-12-27T18:49:59.197Z,2.51
2022-12-27T18:52:41.549Z,2.44
2022-12-27T18:55:22.031Z,2.52
2022-12-27T18:57:45.846Z,2.37
2022-12-27T19:00:22.180Z,2.27
2022-12-27T19:02:45.792Z,2.24
2022-12-27T19:05:20.624Z,2.21
2022-12-27T19:07:43.714Z,2.21
2022-12-27T19:10:18.733Z,2.16
2022-12-27T19:12:43.915Z,2.21
2022-12-27T19:15:17.172Z,2.42
2022-12-27T19:17:40.915Z,2.51
2022-12-27T19:20:08.035Z,2.38
2022-12-27T19:22:39.534Z,2.42
2022-12-27T19:25:24.487Z,2.42
2022-12-27T19:28:16.111Z,2.57
2022-12-27T19:30:46.860Z,2.57
2022-12-27T19:33:30.945Z,2.57
2022-12-27T19:35:54.642Z,2.57
2022-12-27T19:38:21.583Z,2.40
2022-12-27T19:40:45.288Z,2.41
2022-12-27T19:43:08.127Z,2.36
2022-12-27T19:45:31.120Z,2.47
2022-12-27T19:47:54.763Z,2.66
2022-12-27T19:50:17.655Z,2.66
2022-12-27T19:52:40.426Z,2.50
2022-12-27T19:55:15.937Z,2.36
2022-12-27T19:57:41.103Z,2.16
2022-12-27T20:00:12.024Z,2.17
2022-12-27T20:02:35.619Z,2.14
2022-12-27T20:04:58.386Z,2.14
2022-12-27T20:07:23.998Z,2.26
2022-12-27T20:09:47.265Z,2.26
2022-12-27T20:12:12.224Z,2.30
2022-12-27T20:14:34.800Z,2.27
2022-12-27T20:16:57.350Z,2.29
2022-12-27T20:19:20.294Z,2.31
2022-12-27T20:21:43.186Z,2.33
2022-12-27T20:24:06.510Z,2.33
2022-12-27T20:26:29.490Z,2.34
2022-12-27T20:28:52.718Z,2.36
2022-12-27T20:31:19.138Z,2.38
2022-12-27T20:33:42.448Z,2.34
2022-12-27T20:36:05.768Z,2.31
2022-12-27T20:38:28.491Z,2.30
2022-12-27T20:40:51.317Z,2.45
2022-12-27T20:43:14.127Z,2.55
2022-12-27T20:45:36.911Z,2.57
2022-12-27T20:47:59.958Z,2.55
2022-12-27T20:50:22.607Z,2.51
2022-12-27T20:52:45.210Z,2.41
2022-12-27T20:55:10.228Z,2.36
2022-12-27T20:57:34.141Z,2.26
2022-12-27T20:59:56.968Z,2.21
2022-12-27T21:02:20.030Z,2.30
2022-12-27T21:04:42.960Z,2.37
2022-12-27T21:07:05.581Z,2.24
2022-12-27T21:09:28.644Z,2.13
2022-12-27T21:11:53.112Z,2.10
2022-12-27T21:14:15.786Z,2.00
2022-12-27T21:16:41.506Z,2.02
2022-12-27T21:19:06.115Z,2.12
2022-12-27T21:21:29.844Z,2.07
2022-12-27T21:23:52.591Z,2.02
2022-12-27T21:26:20.844Z,2.02
2022-12-27T21:28:44.114Z,1.92
2022-12-27T21:31:07.832Z,1.85
2022-12-27T21:33:30.630Z,1.86
2022-12-27T21:36:11.682Z,1.85
2022-12-27T21:38:35.635Z,1.95
2022-12-27T21:41:03.503Z,1.92
2022-12-27T21:43:28.764Z,1.89
2022-12-27T21:45:51.586Z,1.83
2022-12-27T21:48:14.234Z,1.71
2022-12-27T21:50:37.469Z,1.69
2022-12-27T21:53:00.278Z,1.75
2022-12-27T21:55:22.845Z,1.87
2022-12-27T21:57:45.454Z,1.99
2022-12-27T22:00:09.359Z,2.06
2022-12-27T22:02:32.017Z,1.98
2022-12-27T22:04:54.609Z,1.95
2022-12-27T22:07:17.221Z,2.00
2022-12-27T22:09:39.917Z,1.98
2022-12-27T22:12:02.543Z,2.00
2022-12-27T22:14:26.076Z,1.99
2022-12-27T22:16:49.859Z,2.02
2022-12-27T22:19:13.769Z,2.02
2022-12-27T22:21:38.651Z,2.03
2022-12-27T22:24:04.735Z,2.17
2022-12-27T22:26:30.372Z,2.13
2022-12-27T22:28:52.937Z,2.14
2022-12-27T22:31:18.342Z,2.14
2022-12-27T22:33:41.344Z,2.05
2022-12-27T22:36:24.347Z,2.06
2022-12-27T22:38:49.860Z,2.20
2022-12-27T22:41:15.665Z,2.07
2022-12-27T22:43:39.075Z,2.09
2022-12-27T22:46:08.719Z,1.86
2022-12-27T22:48:31.588Z,1.95
2022-12-27T22:50:54.146Z,1.91
2022-12-27T22:53:16.898Z,1.98
2022-12-27T22:55:42.601Z,1.93
2022-12-27T22:58:05.220Z,1.92
2022-12-27T23:00:27.856Z,1.89
2022-12-27T23:02:50.717Z,1.87
2022-12-27T23:05:13.295Z,1.85
2022-12-27T23:08:06.159Z,1.87
2022-12-27T23:10:18.964Z,1.85
2022-12-27T23:12:41.558Z,1.76
2022-12-27T23:15:04.544Z,1.76
2022-12-27T23:17:27.027Z,1.73
2022-12-27T23:19:49.709Z,1.73
2022-12-27T23:22:12.317Z,1.69
2022-12-27T23:24:35.016Z,1.56
2022-12-27T23:26:57.893Z,1.52
2022-12-27T23:29:20.927Z,1.48
2022-12-27T23:31:55.275Z,1.43
2022-12-27T23:34:22.542Z,1.35
2022-12-27T23:36:49.874Z,1.28
2022-12-27T23:39:12.416Z,1.38
2022-12-27T23:41:37.113Z,1.37
2022-12-27T23:44:01.013Z,1.17
2022-12-27T23:46:30.063Z,1.28
2022-12-27T23:48:52.785Z,1.37
2022-12-27T23:51:16.417Z,1.26
2022-12-27T23:53:39.266Z,1.10
2022-12-27T23:56:06.627Z,1.04
2022-12-27T23:58:29.226Z,0.92
